createdAt,value
2022-10-22T00:03:46.113Z,15.1
2022-10-22T00:09:42.453Z,15.1
2022-10-22T00:15:43.702Z,15.1
2022-10-22T00:21:36.013Z,15.1
2022-10-22T00:27:27.470Z,15.1
2022-10-22T00:33:19.177Z,15.1
2022-10-22T00:39:09.859Z,15.1
2022-10-22T00:45:01.741Z,15.1
2022-10-22T00:50:54.319Z,15.2
2022-10-22T00:56:55.482Z,15.1
2022-10-22T01:02:50.388Z,15.2
2022-10-22T01:08:42.829Z,15.1
2022-10-22T01:14:36.643Z,15
2022-10-22T01:20:41.518Z,14.9
2022-10-22T01:26:38.737Z,14.9
2022-10-22T01:32:32.329Z,15.1
2022-10-22T01:38:49.890Z,15.1
2022-10-22T01:44:46.782Z,15.1
2022-10-22T01:50:41.517Z,15.1
2022-10-22T01:56:35.803Z,15.1
2022-10-22T02:02:33.748Z,15.2
2022-10-22T02:08:34.551Z,15.2
2022-10-22T02:14:31.348Z,15.2
2022-10-22T02:20:22.114Z,15.1
2022-10-22T02:26:14.117Z,15.1
2022-10-22T02:32:05.546Z,15.1
2022-10-22T02:37:56.827Z,15.2
2022-10-22T02:43:49.351Z,15.2
2022-10-22T02:49:40.450Z,15.1
2022-10-22T02:55:32.466Z,15.1
2022-10-22T03:01:23.581Z,15.1
2022-10-22T03:07:16.956Z,15.1
2022-10-22T03:13:07.822Z,15
2022-10-22T03:18:59.640Z,14.9
2022-10-22T03:24:51.105Z,14.9
2022-10-22T03:30:42.384Z,14.8
2022-10-22T03:36:33.782Z,14.8
2022-10-22T03:42:27.763Z,14.8
2022-10-22T03:48:19.806Z,14.7
2022-10-22T03:54:16.625Z,14.7
2022-10-22T04:00:08.175Z,14.6
2022-10-22T04:06:00.265Z,14.6
2022-10-22T04:11:59.374Z,14.6
2022-10-22T04:30:02.916Z,14.5
2022-10-22T04:35:56.491Z,14.5
2022-10-22T04:41:59.284Z,14.5
2022-10-22T04:47:56.825Z,14.4
2022-10-22T04:59:53.206Z,14.4
2022-10-22T05:05:53.772Z,14.4
2022-10-22T05:11:44.776Z,14.4
2022-10-22T05:17:34.941Z,14.4
2022-10-22T05:23:27.865Z,14.4
2022-10-22T05:29:19.511Z,14.3
2022-10-22T05:35:10.178Z,14.2
2022-10-22T05:41:03.866Z,14.2
2022-10-22T05:46:54.399Z,14.2
2022-10-22T05:52:47.843Z,14.2
2022-10-22T05:58:39.524Z,14.3
2022-10-22T06:04:30.945Z,14.2
2022-10-22T06:10:22.709Z,14.3
2022-10-22T06:16:15.416Z,14.3
2022-10-22T06:22:08.308Z,14.3
2022-10-22T06:29:08.595Z,14.3
2022-10-22T06:34:57.478Z,14.5
2022-10-22T06:40:50.820Z,14.4
2022-10-22T06:46:43.472Z,14.4
2022-10-22T06:52:33.933Z,14.5
2022-10-22T06:58:24.358Z,14.5
2022-10-22T07:04:14.609Z,14.5
2022-10-22T07:10:05.947Z,14.5
2022-10-22T07:15:56.561Z,14.4
2022-10-22T07:21:46.267Z,14.4
2022-10-22T07:27:35.756Z,14.5
2022-10-22T07:33:27.771Z,14.6
2022-10-22T07:39:17.661Z,14.7
2022-10-22T07:45:09.796Z,14.7
2022-10-22T07:51:01.666Z,14.9
2022-10-22T07:56:50.687Z,15.1
2022-10-22T08:02:41.739Z,15.2
2022-10-22T08:08:32.468Z,15.3
2022-10-22T08:14:33.826Z,15.3
2022-10-22T08:21:03.503Z,15.3
2022-10-22T08:27:05.370Z,15.3
2022-10-22T08:32:59.827Z,15.3
2022-10-22T08:38:52.364Z,15.4
2022-10-22T08:44:59.169Z,15.6
2022-10-22T09:03:51.425Z,16
2022-10-22T09:09:53.787Z,16
2022-10-22T09:15:48.184Z,16.1
2022-10-22T09:21:59.322Z,16
2022-10-22T09:27:54.507Z,16
2022-10-22T09:34:08.966Z,16
2022-10-22T09:40:21.567Z,16
2022-10-22T09:46:15.960Z,16.1
2022-10-22T09:52:21.275Z,16.2
2022-10-22T09:58:13.828Z,16.3
2022-10-22T10:04:09.290Z,16.5
2022-10-22T10:10:02.458Z,16.5
2022-10-22T10:15:55.364Z,16.7
2022-10-22T10:21:47.450Z,16.9
2022-10-22T10:27:40.353Z,16.9
2022-10-22T10:33:36.326Z,16.9
2022-10-22T10:39:31.629Z,17
2022-10-22T10:45:24.995Z,17
2022-10-22T10:51:17.414Z,17
2022-10-22T10:57:10.434Z,17.1
2022-10-22T11:03:02.040Z,17.1
2022-10-22T11:08:53.659Z,17.2
2022-10-22T11:14:47.708Z,17.3
2022-10-22T11:20:41.671Z,17.4
2022-10-22T11:26:36.674Z,17.4
2022-10-22T11:32:50.517Z,17.3
2022-10-22T11:39:18.099Z,17.5
2022-10-22T12:16:11.590Z,17.9
2022-10-22T13:35:17.458Z,18.5
2022-10-22T13:41:34.208Z,18.6
2022-10-22T13:47:58.017Z,18.6
2022-10-22T13:54:12.506Z,18.7
2022-10-22T14:00:08.788Z,18.8
2022-10-22T14:06:12.972Z,18.6
2022-10-22T14:12:21.284Z,18.7
2022-10-22T14:24:18.773Z,19
2022-10-22T14:30:13.214Z,19
2022-10-22T14:42:12.155Z,19
2022-10-22T14:48:05.655Z,18.9
2022-10-22T14:53:57.764Z,18.9
2022-10-22T14:59:49.476Z,19
2022-10-22T15:05:47.000Z,19.1
2022-10-22T15:11:37.772Z,19
2022-10-22T15:17:32.200Z,19
2022-10-22T15:23:27.150Z,19
2022-10-22T15:29:17.757Z,18.8
2022-10-22T15:35:07.732Z,18.7
2022-10-22T15:40:59.667Z,18.5
2022-10-22T15:46:53.888Z,18.3
2022-10-22T15:52:43.991Z,18.1
2022-10-22T15:58:34.477Z,18
2022-10-22T16:04:24.742Z,18
2022-10-22T16:10:15.351Z,17.9
2022-10-22T16:16:05.579Z,17.8
2022-10-22T16:21:56.059Z,17.8
2022-10-22T16:27:47.110Z,17.7
2022-10-22T16:33:41.186Z,17.7
2022-10-22T16:39:39.934Z,17.5
2022-10-22T16:45:31.138Z,17.4
2022-10-22T16:51:22.967Z,17.4
2022-10-22T16:57:13.536Z,17.3
2022-10-22T17:03:05.563Z,17.3
2022-10-22T17:08:56.019Z,17.3
2022-10-22T17:14:47.541Z,17.2
2022-10-22T17:20:37.095Z,17
2022-10-22T17:26:27.178Z,16.9
2022-10-22T17:32:16.971Z,16.8
2022-10-22T17:38:07.741Z,16.8
2022-10-22T17:43:57.847Z,16.7
2022-10-22T17:49:47.426Z,16.6
2022-10-22T17:55:37.360Z,16.5
2022-10-22T18:01:26.718Z,16.5
2022-10-22T18:07:18.559Z,16.3
2022-10-22T18:13:08.882Z,16.2
2022-10-22T18:18:58.881Z,16.3
2022-10-22T18:24:49.863Z,16.1
2022-10-22T18:30:39.282Z,16
2022-10-22T18:36:36.146Z,15.9
2022-10-22T18:42:31.864Z,15.9
2022-10-22T18:48:27.303Z,15.7
2022-10-22T18:54:22.936Z,15.8
2022-10-22T19:00:12.627Z,15.7
2022-10-22T19:06:02.789Z,15.7
2022-10-22T19:11:52.084Z,15.6
2022-10-22T19:17:41.469Z,15.6
2022-10-22T19:23:33.174Z,15.6
2022-10-22T19:29:25.108Z,15.6
2022-10-22T19:35:15.222Z,15.5
2022-10-22T19:41:05.526Z,15.6
2022-10-22T19:46:55.971Z,15.6
2022-10-22T19:52:47.473Z,15.6
2022-10-22T19:58:37.776Z,15.5
2022-10-22T20:04:26.801Z,15.5
2022-10-22T20:10:17.367Z,15.4
2022-10-22T20:16:06.016Z,15.5
2022-10-22T20:21:55.666Z,15.4
2022-10-22T20:27:44.393Z,15.4
2022-10-22T20:33:35.750Z,15.4
2022-10-22T20:39:26.017Z,15.4
2022-10-22T20:45:16.218Z,15.3
2022-10-22T20:51:05.076Z,15.2
2022-10-22T20:56:55.651Z,15.3
2022-10-22T21:02:46.652Z,15.2
2022-10-22T21:08:37.929Z,15.3
2022-10-22T21:14:28.990Z,15.2
2022-10-22T21:20:21.078Z,15.1
2022-10-22T21:26:13.148Z,15.1
2022-10-22T21:32:04.191Z,15.1
2022-10-22T21:37:55.105Z,15
2022-10-22T21:43:45.742Z,14.9
2022-10-22T21:49:37.564Z,14.9
2022-10-22T21:55:28.387Z,14.9
2022-10-22T22:01:19.603Z,14.8
2022-10-22T22:07:11.829Z,14.8
2022-10-22T22:13:03.607Z,14.7
2022-10-22T22:18:53.013Z,14.8
2022-10-22T22:24:43.441Z,14.7
2022-10-22T22:30:33.413Z,14.7
2022-10-22T22:36:24.152Z,14.6
2022-10-22T22:42:16.318Z,14.7
2022-10-22T22:48:05.195Z,14.7
2022-10-22T22:53:56.068Z,14.6
2022-10-22T22:59:48.318Z,14.6
2022-10-22T23:05:39.530Z,14.6
2022-10-22T23:11:31.899Z,14.5
2022-10-22T23:17:30.142Z,14.4
2022-10-22T23:23:19.970Z,14.5
2022-10-22T23:29:10.847Z,14.4
2022-10-22T23:35:03.817Z,14.4
2022-10-22T23:40:54.789Z,14.4
2022-10-22T23:46:45.833Z,14.4
2022-10-22T23:52:36.575Z,14.3
2022-10-22T23:58:29.679Z,14.2
